Estación Meteorológica Peña el Pijo (Robertgarden) [ 11/14/19 11:51:15 CET ]

Fecha Hora Presion(HPa) Temp (°C) Humedad % Rocio (°C) Viento ( m/s) Direccion Lluvia 1Hora(mm) Lluvia 24H(mm) LLuvia Total(mm)
2019-Jun-13 01:01:53 1005.300 11.8 76 7.7         325.82
2019-Jun-13 02:01:54 1005.300 10.9 80 7.6         325.82
2019-Jun-13 03:01:39 1005.100 10.0 81 6.9         325.82
2019-Jun-13 04:01:41 1004.900 9.0 82 6.1         325.82
2019-Jun-13 05:04:10 1004.800 8.6 84 6.0         325.82
2019-Jun-13 06:01:57 1004.400 9.9 85 7.4         325.82
2019-Jun-13 07:01:50 1004.500 10.8 84 8.2         325.82
2019-Jun-13 08:01:49 1004.800 11.1 84 8.5         325.82
2019-Jun-13 09:01:46 1004.800 12.7 83 9.9         325.82
2019-Jun-13 10:01:54 1005.000 13.8 78 10.0         325.82
2019-Jun-13 11:01:57 1005.000 18.0 66 11.5         325.82
2019-Jun-13 12:01:57 1004.100 21.3 54 11.6         325.82
2019-Jun-13 13:01:47 1003.400 23.8 47 11.8         325.82
2019-Jun-13 14:01:47 1003.200 25.8 42 11.9         325.82
2019-Jun-13 15:01:58 1002.600 28.8 37 12.6         325.82
2019-Jun-13 16:01:44 1002.300 27.9 38 12.2         325.82
2019-Jun-13 17:01:57 1002.100 27.5 38 11.9 1.3 W     325.82
2019-Jun-13 18:01:49 1001.800 27.4 38 11.8         325.82
2019-Jun-13 19:01:39 1001.800 26.8 40 12.1         325.82
2019-Jun-13 20:01:49 1001.900 23.6 47 11.6         325.82
2019-Jun-13 21:01:49 1002.500 21.2 53 11.2         325.82
2019-Jun-13 22:02:01 1003.000 19.1 58 10.6         325.82
2019-Jun-13 23:01:49 1003.900 17.8 62 10.4         325.82

Temperatura Máxima:28°    Temperatura Mínima:
Presión Máxima:1005.300 Hpa    Presión Mínima:1001.800 Hpa


Volver